Alpha, Illinois
Current Conditions -  °F | °C
As of 9:52 AM on Sunday 23 Nov 2014 (Local Time) from KMLI Reporting Station
Haze Haze  
Wind Chill: 50°   Ceiling: 3000
Heat Index: 50°   Visibility: 5mi
Dew Point: 48°   Wind: 13mph
Humidity: 93%   Direction: 150°SSE
Pressure: 29.6"   Gusts: NA
Location:  41.19°N, 90.38°W
Report Text: KMLI 231552Z 15011KT 5SM BR SCT022 BKN030 OVC065 10/09 A2960 RMK AO2 RAE44 SLP024 P0007 T01000089 $
Loading
Personal Weather Stations






























Interactive Weather Map New forecast layout! Learn more

10-Day Weather Forecast

Advertisements
Track Severe Weather on mobile